createdAt,value
2018-12-02T00:04:55.332Z,2.90
2018-12-02T00:10:06.395Z,3.50
2018-12-02T00:15:26.370Z,3.00
2018-12-02T00:20:43.251Z,4.90
2018-12-02T00:26:02.696Z,3.50
2018-12-02T00:31:19.356Z,2.90
2018-12-02T00:36:34.038Z,3.90
2018-12-02T00:41:52.696Z,3.80
2018-12-02T00:47:03.814Z,2.40
2018-12-02T00:52:21.601Z,4.40
2018-12-02T00:57:34.818Z,4.40
2018-12-02T01:02:50.664Z,5.10
2018-12-02T01:08:13.934Z,5.10
2018-12-02T01:13:32.817Z,5.80
2018-12-02T01:18:52.421Z,3.70
2018-12-02T01:24:17.400Z,2.50
2018-12-02T01:29:39.464Z,5.70
2018-12-02T01:35:00.515Z,5.30
2018-12-02T01:40:14.683Z,4.20
2018-12-02T01:45:31.985Z,4.50
2018-12-02T01:56:06.567Z,4.50
2018-12-02T02:01:21.480Z,5.40
2018-12-02T02:06:34.953Z,5.30
2018-12-02T02:11:52.569Z,2.90
2018-12-02T02:17:06.370Z,5.10
2018-12-02T02:22:26.364Z,4.00
2018-12-02T02:27:43.106Z,3.80
2018-12-02T02:32:59.590Z,2.60
2018-12-02T02:38:16.869Z,3.30
2018-12-02T02:43:33.819Z,4.40
2018-12-02T02:59:13.466Z,7.00
2018-12-02T03:04:28.050Z,4.30
2018-12-02T03:09:47.379Z,5.20
2018-12-02T03:15:04.410Z,3.50
2018-12-02T03:20:26.863Z,3.50
2018-12-02T03:25:45.885Z,2.70
2018-12-02T03:36:19.023Z,6.90
2018-12-02T03:41:34.122Z,5.90
2018-12-02T03:57:19.012Z,6.40
2018-12-02T04:02:39.475Z,5.50
2018-12-02T04:07:57.425Z,5.30
2018-12-02T04:13:15.522Z,4.00
2018-12-02T04:18:37.708Z,3.30
2018-12-02T04:23:59.866Z,7.30
2018-12-02T04:29:15.958Z,3.30
2018-12-02T04:45:01.644Z,6.80
2018-12-02T04:50:28.684Z,8.70
2018-12-02T04:55:44.027Z,5.00
2018-12-02T05:01:00.356Z,5.40
2018-12-02T05:16:49.936Z,7.00
2018-12-02T05:22:02.152Z,7.80
2018-12-02T05:27:19.963Z,7.00
2018-12-02T05:32:44.439Z,4.60
2018-12-02T05:38:02.101Z,6.80
2018-12-02T05:48:38.547Z,7.30
2018-12-02T05:53:51.446Z,5.80
2018-12-02T05:59:07.952Z,6.40
2018-12-02T06:14:51.492Z,11.00
2018-12-02T06:20:12.960Z,5.10
2018-12-02T06:25:35.112Z,5.70
2018-12-02T06:30:55.795Z,5.70
2018-12-02T06:41:28.875Z,8.80
2018-12-02T06:46:49.212Z,7.50
2018-12-02T06:52:03.980Z,5.60
2018-12-02T07:02:41.613Z,7.60
2018-12-02T07:08:00.983Z,5.00
2018-12-02T07:13:20.357Z,6.70
2018-12-02T07:18:33.324Z,8.70
2018-12-02T07:23:55.385Z,12.70
2018-12-02T07:29:13.361Z,21.90
2018-12-02T07:34:26.790Z,21.60
2018-12-02T07:39:46.524Z,17.30
2018-12-02T07:45:00.774Z,14.10
2018-12-02T07:50:16.558Z,20.90
2018-12-02T07:55:29.787Z,16.20
2018-12-02T08:00:41.614Z,30.00
2018-12-02T08:05:56.115Z,21.50
2018-12-02T08:11:08.579Z,14.60
2018-12-02T08:16:21.756Z,16.70
2018-12-02T08:21:39.664Z,13.00
2018-12-02T08:26:58.848Z,13.80
2018-12-02T08:32:09.158Z,15.80
2018-12-02T08:37:20.610Z,18.90
2018-12-02T08:42:34.569Z,22.10
2018-12-02T08:47:45.126Z,23.30
2018-12-02T08:53:00.358Z,17.30
2018-12-02T08:58:13.757Z,19.30
2018-12-02T09:03:23.736Z,16.90
2018-12-02T09:08:32.882Z,15.10
2018-12-02T09:13:38.877Z,10.70
2018-12-02T09:18:56.698Z,12.50
2018-12-02T09:24:06.574Z,9.90
2018-12-02T09:29:14.744Z,7.30
2018-12-02T09:34:31.114Z,9.80
2018-12-02T09:39:51.026Z,5.30
2018-12-02T09:45:06.443Z,6.60
2018-12-02T09:50:18.218Z,2.70
2018-12-02T09:55:25.299Z,2.40
2018-12-02T10:00:34.041Z,3.60
2018-12-02T10:05:40.294Z,2.90
2018-12-02T10:10:50.305Z,2.80
2018-12-02T10:16:03.705Z,3.60
2018-12-02T10:21:09.252Z,4.40
2018-12-02T10:26:17.839Z,3.80
2018-12-02T10:31:19.914Z,3.60
2018-12-02T10:36:23.413Z,3.00
2018-12-02T10:41:26.981Z,3.70
2018-12-02T10:46:29.575Z,3.80
2018-12-02T10:51:32.244Z,3.60
2018-12-02T10:56:34.577Z,3.80
2018-12-02T11:01:37.382Z,4.00
2018-12-02T11:06:38.090Z,3.90
2018-12-02T11:11:38.617Z,4.50
2018-12-02T11:16:39.766Z,3.90
2018-12-02T11:21:38.727Z,4.10
2018-12-02T11:26:40.137Z,3.40
2018-12-02T11:31:37.907Z,4.90
2018-12-02T11:36:35.838Z,7.70
2018-12-02T11:41:37.452Z,5.50
2018-12-02T11:46:35.898Z,6.40
2018-12-02T11:51:33.650Z,4.60
2018-12-02T11:56:32.222Z,2.60
2018-12-02T12:01:33.896Z,2.80
2018-12-02T12:06:34.325Z,4.70
2018-12-02T12:11:30.903Z,4.10
2018-12-02T12:16:30.099Z,4.30
2018-12-02T12:21:28.462Z,3.70
2018-12-02T12:26:26.710Z,3.80
2018-12-02T12:31:25.679Z,3.80
2018-12-02T12:36:21.319Z,4.10
2018-12-02T12:41:21.118Z,3.50
2018-12-02T12:46:16.613Z,3.60
2018-12-02T12:51:15.525Z,3.90
2018-12-02T12:56:11.274Z,4.00
2018-12-02T13:01:10.254Z,3.70
2018-12-02T13:06:08.330Z,3.40
2018-12-02T13:11:06.174Z,3.20
2018-12-02T13:16:02.758Z,4.00
2018-12-02T13:21:00.388Z,3.40
2018-12-02T13:25:56.464Z,4.00
2018-12-02T13:31:02.162Z,4.30
2018-12-02T13:36:18.426Z,5.40
2018-12-02T13:41:14.710Z,4.60
2018-12-02T13:46:10.538Z,3.60
2018-12-02T13:51:09.290Z,4.30
2018-12-02T13:56:08.132Z,4.70
2018-12-02T14:01:04.118Z,4.10
2018-12-02T14:06:02.966Z,4.50
2018-12-02T14:11:01.501Z,4.00
2018-12-02T14:16:01.712Z,4.30
2018-12-02T14:20:59.829Z,4.10
2018-12-02T14:25:58.001Z,4.10
2018-12-02T14:30:56.739Z,4.10
2018-12-02T14:35:55.620Z,4.50
2018-12-02T14:41:04.993Z,5.30
2018-12-02T14:46:01.760Z,7.90
2018-12-02T14:51:00.443Z,5.10
2018-12-02T14:56:00.491Z,6.20
2018-12-02T15:01:04.398Z,7.40
2018-12-02T15:06:01.659Z,7.40
2018-12-02T15:11:02.554Z,7.60
2018-12-02T15:16:01.688Z,6.20
2018-12-02T15:21:02.770Z,5.80
2018-12-02T15:26:03.575Z,6.30
2018-12-02T15:31:02.642Z,7.80
2018-12-02T15:36:03.892Z,7.10
2018-12-02T15:41:02.987Z,6.40
2018-12-02T15:46:00.956Z,7.20
2018-12-02T15:51:00.346Z,8.20
2018-12-02T15:56:01.146Z,9.40
2018-12-02T16:00:58.795Z,7.50
2018-12-02T16:06:03.550Z,7.90
2018-12-02T16:11:00.169Z,7.40
2018-12-02T16:16:01.581Z,8.20
2018-12-02T16:21:02.259Z,7.40
2018-12-02T16:26:02.641Z,6.20
2018-12-02T16:31:03.356Z,6.20
2018-12-02T16:36:02.246Z,6.70
2018-12-02T16:41:00.114Z,7.60
2018-12-02T16:46:00.862Z,6.00
2018-12-02T16:51:01.196Z,6.50
2018-12-02T16:56:02.263Z,7.00
2018-12-02T17:01:02.376Z,5.40
2018-12-02T17:06:02.602Z,5.60
2018-12-02T17:11:09.036Z,5.70
2018-12-02T17:16:06.342Z,5.50
2018-12-02T17:21:15.970Z,6.20
2018-12-02T17:26:13.269Z,7.50
2018-12-02T17:31:11.428Z,5.30
2018-12-02T17:36:09.945Z,4.40
2018-12-02T17:41:09.449Z,4.80
2018-12-02T17:46:08.317Z,3.80
2018-12-02T17:51:04.731Z,5.00
2018-12-02T17:56:05.568Z,3.60
2018-12-02T18:01:01.568Z,4.60
2018-12-02T18:06:01.289Z,4.70
2018-12-02T18:11:00.972Z,4.60
2018-12-02T18:15:59.821Z,4.70
2018-12-02T18:20:58.974Z,5.40
2018-12-02T18:25:56.125Z,5.10
2018-12-02T18:30:53.922Z,4.70
2018-12-02T18:35:53.364Z,7.50
2018-12-02T18:40:51.463Z,3.70
2018-12-02T18:45:51.240Z,5.10
2018-12-02T18:50:49.354Z,4.00
2018-12-02T18:55:49.820Z,3.30
2018-12-02T19:00:45.838Z,2.70
2018-12-02T19:05:45.651Z,3.70
2018-12-02T19:10:43.702Z,3.40
2018-12-02T19:15:42.286Z,2.50
2018-12-02T19:20:41.783Z,2.20
2018-12-02T19:25:39.875Z,3.50
2018-12-02T19:30:38.324Z,5.60
2018-12-02T19:35:37.868Z,2.60
2018-12-02T19:40:34.099Z,3.10
2018-12-02T19:45:32.396Z,2.10
2018-12-02T19:50:33.260Z,2.30
2018-12-02T19:55:32.208Z,2.20
2018-12-02T20:00:32.467Z,1.60
2018-12-02T20:05:30.991Z,2.20
2018-12-02T20:10:32.398Z,3.00
2018-12-02T20:15:33.198Z,2.10
2018-12-02T20:20:36.926Z,2.40
2018-12-02T20:25:37.140Z,3.10
2018-12-02T20:30:41.251Z,2.20
2018-12-02T20:35:48.094Z,2.80
2018-12-02T20:40:50.865Z,3.30
2018-12-02T20:45:50.572Z,3.40
2018-12-02T20:50:51.537Z,2.60
2018-12-02T20:55:54.857Z,3.90
2018-12-02T21:00:57.291Z,4.50
2018-12-02T21:05:59.865Z,4.00
2018-12-02T21:11:02.734Z,5.90
2018-12-02T21:16:08.524Z,4.50
2018-12-02T21:21:15.831Z,5.30
2018-12-02T21:26:16.072Z,4.60
2018-12-02T21:31:17.110Z,4.80
2018-12-02T21:36:20.057Z,5.50
2018-12-02T21:41:23.914Z,8.00
2018-12-02T21:46:24.430Z,4.60
2018-12-02T21:51:25.447Z,10.40
2018-12-02T21:56:26.528Z,4.80
2018-12-02T22:01:30.665Z,4.30
2018-12-02T22:06:32.983Z,5.60
2018-12-02T22:11:33.859Z,5.10
2018-12-02T22:16:34.679Z,5.70
2018-12-02T22:21:38.591Z,9.70
2018-12-02T22:26:45.001Z,7.70
2018-12-02T22:31:53.367Z,8.10
2018-12-02T22:37:01.250Z,7.50
2018-12-02T22:42:08.363Z,6.70
2018-12-02T22:47:16.964Z,5.70
2018-12-02T22:52:17.019Z,7.20
2018-12-02T22:57:17.825Z,5.90
2018-12-02T23:02:17.762Z,5.70
2018-12-02T23:07:18.228Z,7.50
2018-12-02T23:12:22.350Z,6.70
2018-12-02T23:17:22.992Z,6.10
2018-12-02T23:22:23.557Z,6.60
2018-12-02T23:27:30.800Z,5.30
2018-12-02T23:32:30.413Z,5.50
2018-12-02T23:37:30.512Z,5.20
2018-12-02T23:42:37.412Z,6.10
2018-12-02T23:47:36.938Z,6.40
2018-12-02T23:52:37.636Z,5.90
2018-12-02T23:57:37.702Z,6.10
